createdAt,value
2023-02-28T00:01:26.201Z,4.70
2023-02-28T00:03:52.968Z,4.70
2023-02-28T00:06:19.902Z,5.13
2023-02-28T00:08:46.683Z,5.20
2023-02-28T00:11:14.508Z,4.65
2023-02-28T00:13:42.302Z,5.20
2023-02-28T00:16:10.696Z,4.63
2023-02-28T00:18:37.468Z,3.45
2023-02-28T00:21:04.516Z,5.00
2023-02-28T00:23:33.084Z,3.13
2023-02-28T00:25:59.639Z,2.90
2023-02-28T00:28:26.566Z,2.75
2023-02-28T00:30:53.553Z,3.40
2023-02-28T00:33:20.267Z,4.72
2023-02-28T00:35:47.996Z,4.32
2023-02-28T00:38:14.824Z,5.05
2023-02-28T00:40:44.291Z,4.70
2023-02-28T00:43:11.399Z,5.05
2023-02-28T00:45:38.017Z,4.25
2023-02-28T00:48:05.632Z,3.35
2023-02-28T00:50:34.811Z,5.40
2023-02-28T00:53:03.742Z,6.40
2023-02-28T00:55:30.368Z,3.85
2023-02-28T00:57:57.154Z,3.53
2023-02-28T01:00:23.784Z,4.18
2023-02-28T01:02:50.591Z,4.22
2023-02-28T01:05:17.308Z,3.80
2023-02-28T01:07:45.350Z,4.93
2023-02-28T01:10:11.997Z,3.20
2023-02-28T01:12:38.682Z,4.25
2023-02-28T01:15:05.659Z,3.58
2023-02-28T01:17:35.166Z,5.15
2023-02-28T01:20:01.824Z,4.85
2023-02-28T01:22:28.633Z,4.85
2023-02-28T01:24:55.352Z,5.97
2023-02-28T01:27:22.074Z,3.88
2023-02-28T01:29:48.787Z,3.22
2023-02-28T01:32:16.049Z,6.18
2023-02-28T01:34:42.805Z,5.13
2023-02-28T01:37:09.344Z,4.05
2023-02-28T01:39:36.004Z,6.20
2023-02-28T01:42:03.766Z,4.90
2023-02-28T01:44:48.844Z,5.30
2023-02-28T01:47:16.042Z,4.65
2023-02-28T01:49:42.916Z,4.50
2023-02-28T01:52:15.966Z,4.25
2023-02-28T01:54:42.872Z,5.70
2023-02-28T01:57:16.050Z,3.85
2023-02-28T01:59:47.760Z,2.90
2023-02-28T02:02:14.949Z,5.40
2023-02-28T02:04:46.235Z,6.07
2023-02-28T02:07:14.020Z,4.78
2023-02-28T02:09:45.102Z,3.80
2023-02-28T02:12:29.459Z,3.40
2023-02-28T02:15:03.406Z,3.60
2023-02-28T02:17:35.562Z,3.75
2023-02-28T02:20:04.181Z,4.15
2023-02-28T02:22:42.995Z,5.38
2023-02-28T02:25:12.846Z,2.90
2023-02-28T02:27:42.404Z,4.05
2023-02-28T02:30:25.055Z,5.82
2023-02-28T02:33:07.086Z,5.38
2023-02-28T02:35:53.294Z,4.68
2023-02-28T02:38:43.458Z,4.00
2023-02-28T02:41:12.989Z,4.38
2023-02-28T02:43:42.901Z,4.80
2023-02-28T02:46:29.728Z,3.78
2023-02-28T02:48:57.541Z,5.10
2023-02-28T02:51:25.192Z,6.57
2023-02-28T02:53:55.834Z,3.22
2023-02-28T02:56:24.280Z,4.88
2023-02-28T02:58:52.062Z,4.35
2023-02-28T03:01:28.800Z,4.55
2023-02-28T03:03:57.557Z,6.65
2023-02-28T03:06:24.540Z,5.13
2023-02-28T03:08:51.321Z,5.35
2023-02-28T03:11:18.134Z,6.55
2023-02-28T03:13:45.919Z,3.72
2023-02-28T03:16:12.620Z,7.20
2023-02-28T03:18:51.943Z,5.35
2023-02-28T03:21:29.526Z,5.57
2023-02-28T03:24:04.839Z,5.30
2023-02-28T03:26:32.911Z,4.10
2023-02-28T03:29:35.980Z,5.30
2023-02-28T03:32:12.712Z,6.65
2023-02-28T03:34:40.883Z,5.00
2023-02-28T03:37:11.466Z,6.05
2023-02-28T03:39:40.346Z,6.07
2023-02-28T03:42:09.735Z,5.47
2023-02-28T03:44:39.318Z,4.82
2023-02-28T03:47:09.530Z,6.00
2023-02-28T03:49:38.453Z,5.03
2023-02-28T03:52:07.231Z,8.25
2023-02-28T03:54:36.238Z,6.82
2023-02-28T03:57:09.772Z,6.20
2023-02-28T03:59:43.192Z,4.50
2023-02-28T04:02:10.122Z,5.38
2023-02-28T04:04:36.930Z,6.78
2023-02-28T04:07:08.901Z,6.53
2023-02-28T04:09:35.623Z,5.80
2023-02-28T04:12:05.025Z,6.65
2023-02-28T04:14:31.772Z,6.40
2023-02-28T04:16:58.292Z,5.18
2023-02-28T04:19:25.273Z,6.35
2023-02-28T04:21:52.689Z,7.63
2023-02-28T04:24:21.015Z,6.13
2023-02-28T04:26:48.970Z,6.03
2023-02-28T04:29:20.323Z,9.00
2023-02-28T04:31:47.273Z,5.45
2023-02-28T04:34:13.939Z,6.97
2023-02-28T04:36:40.677Z,6.22
2023-02-28T04:39:07.194Z,5.45
2023-02-28T04:41:34.126Z,4.78
2023-02-28T04:44:00.848Z,7.53
2023-02-28T04:46:33.556Z,6.75
2023-02-28T04:49:00.222Z,7.32
2023-02-28T04:51:26.997Z,5.20
2023-02-28T04:53:53.988Z,5.93
2023-02-28T04:56:20.781Z,7.13
2023-02-28T04:58:47.573Z,5.32
2023-02-28T05:01:17.154Z,5.05
2023-02-28T05:03:44.368Z,4.85
2023-02-28T05:06:11.647Z,5.22
2023-02-28T05:08:38.461Z,8.30
2023-02-28T05:11:13.054Z,6.63
2023-02-28T05:13:39.608Z,7.82
2023-02-28T05:16:06.453Z,5.70
2023-02-28T05:18:33.134Z,5.15
2023-02-28T05:21:04.882Z,4.80
2023-02-28T05:23:31.701Z,6.82
2023-02-28T05:25:58.325Z,5.38
2023-02-28T05:28:25.080Z,6.05
2023-02-28T05:30:51.582Z,8.82
2023-02-28T05:33:18.503Z,6.25
2023-02-28T05:35:45.373Z,7.00
2023-02-28T05:38:12.011Z,7.72
2023-02-28T05:40:39.621Z,6.32
2023-02-28T05:43:06.333Z,6.03
2023-02-28T05:45:33.082Z,6.85
2023-02-28T05:47:59.892Z,6.90
2023-02-28T05:50:26.420Z,5.57
2023-02-28T05:52:53.186Z,7.03
2023-02-28T05:55:20.264Z,6.97
2023-02-28T05:57:46.929Z,7.55
2023-02-28T06:00:16.170Z,6.10
2023-02-28T06:02:42.940Z,7.05
2023-02-28T06:05:14.330Z,6.68
2023-02-28T06:07:40.885Z,9.50
2023-02-28T06:10:07.936Z,5.93
2023-02-28T06:12:34.533Z,6.90
2023-02-28T06:15:01.094Z,8.32
2023-02-28T06:17:28.044Z,6.18
2023-02-28T06:19:54.568Z,6.55
2023-02-28T06:22:21.201Z,7.72
2023-02-28T06:24:48.096Z,7.55
2023-02-28T06:27:18.679Z,5.72
2023-02-28T06:29:45.366Z,9.70
2023-02-28T06:32:12.094Z,5.78
2023-02-28T06:34:38.763Z,7.82
2023-02-28T06:37:05.498Z,6.65
2023-02-28T06:39:33.058Z,8.68
2023-02-28T06:41:59.829Z,7.40
2023-02-28T06:44:26.417Z,6.15
2023-02-28T06:46:52.982Z,9.10
2023-02-28T06:49:19.620Z,8.43
2023-02-28T06:51:46.487Z,8.52
2023-02-28T06:54:13.738Z,6.78
2023-02-28T06:56:40.567Z,9.30
2023-02-28T06:59:07.210Z,9.13
2023-02-28T07:01:34.209Z,8.25
2023-02-28T07:04:04.126Z,7.80
2023-02-28T07:06:30.745Z,9.00
2023-02-28T07:08:57.322Z,8.40
2023-02-28T07:11:26.541Z,7.93
2023-02-28T07:13:53.857Z,11.02
2023-02-28T07:16:20.812Z,6.40
2023-02-28T07:18:47.741Z,7.10
2023-02-28T07:21:14.426Z,5.88
2023-02-28T07:23:41.310Z,5.38
2023-02-28T07:26:08.836Z,7.20
2023-02-28T07:28:35.601Z,6.28
2023-02-28T07:31:08.550Z,6.75
2023-02-28T07:33:35.373Z,6.43
2023-02-28T07:36:03.173Z,8.60
2023-02-28T07:38:29.743Z,4.95
2023-02-28T07:40:56.650Z,6.10
2023-02-28T07:43:23.266Z,8.15
2023-02-28T07:45:49.930Z,6.90
2023-02-28T07:48:16.615Z,4.90
2023-02-28T07:50:43.171Z,7.30
2023-02-28T07:53:09.853Z,7.32
2023-02-28T07:55:36.419Z,6.10
2023-02-28T07:58:03.089Z,4.07
2023-02-28T08:00:30.386Z,6.45
2023-02-28T08:02:56.936Z,6.90
2023-02-28T08:05:23.499Z,5.03
2023-02-28T08:07:50.568Z,6.03
2023-02-28T08:10:17.193Z,4.63
2023-02-28T08:12:43.762Z,6.88
2023-02-28T08:15:10.478Z,8.63
2023-02-28T08:17:37.113Z,8.13
2023-02-28T08:20:05.187Z,6.78
2023-02-28T08:22:31.935Z,7.07
2023-02-28T08:24:58.412Z,4.07
2023-02-28T08:27:25.010Z,4.57
2023-02-28T08:29:51.628Z,4.68
2023-02-28T08:32:29.498Z,5.30
2023-02-28T08:34:56.644Z,8.75
2023-02-28T08:37:24.165Z,8.25
2023-02-28T08:39:50.785Z,5.97
2023-02-28T08:42:17.540Z,4.40
2023-02-28T08:44:44.188Z,8.07
2023-02-28T08:47:10.862Z,6.95
2023-02-28T08:49:38.756Z,5.35
2023-02-28T08:52:05.542Z,4.05
2023-02-28T08:54:34.253Z,6.82
2023-02-28T08:57:04.291Z,6.60
2023-02-28T08:59:33.414Z,5.05
2023-02-28T09:02:00.014Z,5.82
2023-02-28T09:04:26.997Z,7.30
2023-02-28T09:06:54.931Z,5.45
2023-02-28T09:09:21.652Z,4.88
2023-02-28T09:11:48.411Z,7.82
2023-02-28T09:14:15.114Z,4.05
2023-02-28T09:16:41.659Z,3.97
2023-02-28T09:19:11.286Z,4.05
2023-02-28T09:21:37.827Z,3.33
2023-02-28T09:24:04.435Z,2.85
2023-02-28T09:26:39.027Z,4.55
2023-02-28T09:29:10.271Z,3.85
2023-02-28T09:31:36.876Z,4.32
2023-02-28T09:34:04.884Z,4.22
2023-02-28T09:36:43.482Z,2.88
2023-02-28T09:39:11.322Z,4.57
2023-02-28T09:41:52.137Z,7.78
2023-02-28T09:44:25.998Z,6.15
2023-02-28T09:46:54.948Z,4.25
2023-02-28T09:49:24.635Z,3.78
2023-02-28T09:52:05.218Z,3.88
2023-02-28T09:54:33.262Z,5.85
2023-02-28T09:57:03.766Z,4.07
2023-02-28T09:59:45.944Z,3.60
2023-02-28T10:02:12.560Z,3.30
2023-02-28T10:04:55.524Z,6.32
2023-02-28T10:07:40.275Z,2.92
2023-02-28T10:10:17.225Z,3.13
2023-02-28T10:12:45.452Z,2.70
2023-02-28T10:15:16.383Z,4.43
2023-02-28T10:17:55.335Z,4.07
2023-02-28T10:20:34.932Z,6.15
2023-02-28T10:23:20.405Z,2.53
2023-02-28T10:28:16.702Z,2.70
2023-02-28T10:30:45.217Z,3.53
2023-02-28T10:33:21.540Z,4.55
2023-02-28T10:35:48.240Z,4.30
2023-02-28T10:38:22.985Z,2.72
2023-02-28T10:40:49.943Z,2.25
2023-02-28T10:43:16.458Z,5.05
2023-02-28T10:46:01.986Z,5.70
2023-02-28T10:50:58.764Z,8.30
2023-02-28T10:53:28.088Z,5.20
2023-02-28T10:55:57.373Z,3.25
2023-02-28T10:58:25.069Z,5.05
2023-02-28T11:00:52.289Z,3.13
2023-02-28T11:03:26.754Z,5.60
2023-02-28T11:05:53.597Z,4.78
2023-02-28T11:08:20.314Z,2.42
2023-02-28T11:10:48.319Z,4.28
2023-02-28T11:13:19.410Z,2.63
2023-02-28T11:15:52.428Z,5.97
2023-02-28T11:18:31.473Z,3.47
2023-02-28T11:20:59.810Z,3.80
2023-02-28T11:23:27.445Z,3.20
2023-02-28T11:25:55.404Z,3.38
2023-02-28T11:28:25.225Z,5.25
2023-02-28T11:31:10.607Z,4.47
2023-02-28T11:36:05.627Z,2.65
2023-02-28T11:38:35.352Z,3.92
2023-02-28T11:41:10.800Z,4.70
2023-02-28T11:43:37.504Z,2.97
2023-02-28T11:46:24.891Z,2.58
2023-02-28T11:49:00.621Z,3.30
2023-02-28T11:51:30.131Z,2.55
2023-02-28T11:54:03.194Z,4.53
2023-02-28T11:56:40.631Z,2.83
2023-02-28T11:59:13.622Z,4.05
2023-02-28T12:01:40.719Z,6.28
2023-02-28T12:04:25.983Z,4.63
2023-02-28T12:07:01.772Z,3.03
2023-02-28T12:09:28.349Z,3.28
2023-02-28T12:11:58.050Z,3.38
2023-02-28T12:14:36.927Z,2.53
2023-02-28T12:17:18.814Z,2.30
2023-02-28T12:20:04.297Z,5.47
2023-02-28T12:22:33.915Z,3.75
2023-02-28T12:25:00.424Z,3.08
2023-02-28T12:27:30.193Z,2.78
2023-02-28T12:30:02.921Z,2.70
2023-02-28T12:32:40.434Z,3.67
2023-02-28T12:35:09.827Z,4.53
2023-02-28T12:37:39.656Z,3.47
2023-02-28T12:40:08.075Z,3.08
2023-02-28T12:42:45.005Z,3.15
2023-02-28T12:45:14.511Z,3.35
2023-02-28T12:47:42.759Z,3.90
2023-02-28T12:50:12.502Z,3.28
2023-02-28T12:53:06.011Z,3.75
2023-02-28T12:55:47.956Z,3.30
2023-02-28T12:58:30.260Z,3.22
2023-02-28T13:00:56.966Z,3.63
2023-02-28T13:03:23.615Z,3.92
2023-02-28T13:05:55.980Z,3.13
2023-02-28T13:08:28.572Z,2.83
2023-02-28T13:10:55.820Z,3.95
2023-02-28T13:13:23.644Z,5.00
2023-02-28T13:16:05.401Z,3.95
2023-02-28T13:18:33.917Z,3.28
2023-02-28T13:21:01.480Z,3.78
2023-02-28T13:23:39.568Z,2.53
2023-02-28T13:26:06.619Z,3.35
2023-02-28T13:28:51.626Z,3.45
2023-02-28T13:31:19.645Z,3.13
2023-02-28T13:33:46.119Z,2.78
2023-02-28T13:36:12.836Z,4.00
2023-02-28T13:38:43.160Z,2.88
2023-02-28T13:41:30.272Z,3.67
2023-02-28T13:43:59.833Z,2.97
2023-02-28T13:46:26.527Z,3.13
2023-02-28T13:48:53.157Z,4.40
2023-02-28T13:51:41.744Z,3.00
2023-02-28T13:54:25.833Z,3.25
2023-02-28T13:57:03.000Z,3.65
2023-02-28T13:59:50.131Z,3.08
2023-02-28T14:02:25.781Z,2.97
2023-02-28T14:05:01.785Z,3.35
2023-02-28T14:07:35.739Z,8.48
2023-02-28T14:10:06.664Z,5.93
2023-02-28T14:12:51.581Z,1.80
2023-02-28T14:15:37.218Z,1.90
2023-02-28T14:18:04.850Z,5.00
2023-02-28T14:20:33.110Z,2.65
2023-02-28T14:23:11.724Z,2.78
2023-02-28T14:25:50.978Z,3.05
2023-02-28T14:28:38.124Z,2.65
2023-02-28T14:31:04.798Z,2.85
2023-02-28T14:33:43.298Z,2.95
2023-02-28T14:36:19.350Z,3.28
2023-02-28T14:38:57.499Z,2.97
2023-02-28T14:41:25.418Z,2.67
2023-02-28T14:43:56.847Z,2.83
2023-02-28T14:46:25.134Z,2.70
2023-02-28T14:48:51.868Z,5.57
2023-02-28T14:51:22.780Z,5.38
2023-02-28T14:53:57.148Z,2.47
2023-02-28T14:56:26.088Z,5.35
2023-02-28T14:58:54.127Z,3.88
2023-02-28T15:01:22.405Z,3.15
2023-02-28T15:03:49.655Z,4.25
2023-02-28T15:06:18.851Z,2.45
2023-02-28T15:08:46.029Z,3.25
2023-02-28T15:11:17.580Z,2.60
2023-02-28T15:13:49.301Z,2.47
2023-02-28T15:16:33.094Z,2.70
2023-02-28T15:19:01.206Z,4.25
2023-02-28T15:21:32.874Z,3.35
2023-02-28T15:24:05.987Z,3.10
2023-02-28T15:26:39.571Z,2.95
2023-02-28T15:29:12.605Z,3.05
2023-02-28T15:31:57.006Z,2.88
2023-02-28T15:34:45.056Z,3.33
2023-02-28T15:37:34.677Z,3.25
2023-02-28T15:40:13.359Z,3.33
2023-02-28T15:42:40.071Z,2.95
2023-02-28T15:45:06.963Z,3.78
2023-02-28T15:47:33.965Z,5.00
2023-02-28T15:50:08.447Z,2.40
2023-02-28T15:52:38.848Z,3.10
2023-02-28T15:55:13.579Z,3.72
2023-02-28T15:57:41.255Z,5.22
2023-02-28T16:00:11.776Z,2.88
2023-02-28T16:02:38.973Z,3.10
2023-02-28T16:05:08.607Z,2.38
2023-02-28T16:07:35.996Z,3.58
2023-02-28T16:10:05.241Z,5.25
2023-02-28T16:12:33.090Z,3.28
2023-02-28T16:15:03.544Z,4.93
2023-02-28T16:17:33.436Z,2.83
2023-02-28T16:20:00.508Z,3.47
2023-02-28T16:22:27.214Z,2.45
2023-02-28T16:24:53.825Z,2.55
2023-02-28T16:27:36.814Z,2.95
2023-02-28T16:30:04.425Z,3.83
2023-02-28T16:32:31.890Z,3.30
2023-02-28T16:34:58.723Z,4.00
2023-02-28T16:37:25.295Z,2.70
2023-02-28T16:39:52.180Z,3.55
2023-02-28T16:42:29.506Z,4.50
2023-02-28T16:44:56.773Z,3.33
2023-02-28T16:47:23.579Z,4.22
2023-02-28T16:49:50.591Z,3.35
2023-02-28T16:52:17.114Z,6.68
2023-02-28T16:54:43.779Z,2.63
2023-02-28T16:57:19.597Z,7.50
2023-02-28T16:59:46.294Z,3.42
2023-02-28T17:02:17.778Z,2.63
2023-02-28T17:04:44.500Z,4.20
2023-02-28T17:07:15.179Z,3.05
2023-02-28T17:09:43.492Z,4.50
2023-02-28T17:12:12.256Z,2.60
2023-02-28T17:14:39.168Z,2.58
2023-02-28T17:17:06.321Z,3.13
2023-02-28T17:19:32.956Z,3.00
2023-02-28T17:21:59.653Z,3.63
2023-02-28T17:24:31.204Z,3.47
2023-02-28T17:26:58.603Z,3.85
2023-02-28T17:29:25.552Z,3.10
2023-02-28T17:31:52.587Z,3.35
2023-02-28T17:34:20.734Z,3.15
2023-02-28T17:36:47.985Z,4.65
2023-02-28T17:39:24.988Z,2.75
2023-02-28T17:41:52.759Z,3.50
2023-02-28T17:44:19.552Z,4.70
2023-02-28T17:46:47.053Z,4.22
2023-02-28T17:49:13.732Z,4.13
2023-02-28T17:51:40.370Z,3.53
2023-02-28T17:54:07.599Z,4.85
2023-02-28T17:56:34.239Z,5.43
2023-02-28T17:59:00.843Z,2.55
2023-02-28T18:01:27.857Z,2.97
2023-02-28T18:03:55.246Z,3.83
2023-02-28T18:06:50.910Z,3.08
2023-02-28T18:09:18.879Z,3.70
2023-02-28T18:11:51.716Z,3.30
2023-02-28T18:14:19.814Z,3.78
2023-02-28T18:16:46.376Z,4.05
2023-02-28T18:19:17.770Z,3.97
2023-02-28T18:22:03.465Z,3.65
2023-02-28T18:24:30.213Z,5.40
2023-02-28T18:26:56.686Z,2.78
2023-02-28T18:29:24.580Z,5.20
2023-02-28T18:31:51.512Z,3.38
2023-02-28T18:34:18.178Z,2.95
2023-02-28T18:36:47.169Z,3.22
2023-02-28T18:39:14.714Z,4.32
2023-02-28T18:41:41.914Z,3.55
2023-02-28T18:44:18.926Z,5.70
2023-02-28T18:46:46.590Z,6.28
2023-02-28T18:49:13.350Z,3.47
2023-02-28T18:51:40.416Z,3.25
2023-02-28T18:54:07.422Z,4.50
2023-02-28T18:56:34.011Z,4.55
2023-02-28T18:59:00.523Z,4.20
2023-02-28T19:01:30.206Z,7.57
2023-02-28T19:03:57.476Z,3.50
2023-02-28T19:06:24.112Z,4.85
2023-02-28T19:08:57.220Z,3.53
2023-02-28T19:11:24.173Z,4.68
2023-02-28T19:13:50.927Z,4.88
2023-02-28T19:16:18.681Z,5.05
2023-02-28T19:18:45.362Z,4.18
2023-02-28T19:21:13.118Z,4.65
2023-02-28T19:23:40.293Z,3.30
2023-02-28T19:26:07.706Z,3.80
2023-02-28T19:28:34.416Z,5.53
2023-02-28T19:31:01.061Z,3.90
2023-02-28T19:33:30.739Z,15.30
2023-02-28T19:36:01.916Z,7.57
2023-02-28T19:38:28.691Z,4.82
2023-02-28T19:41:05.874Z,10.82
2023-02-28T19:43:33.714Z,8.63
2023-02-28T19:46:00.308Z,9.13
2023-02-28T19:48:28.415Z,6.60
2023-02-28T19:51:02.706Z,4.88
2023-02-28T19:53:33.662Z,6.95
2023-02-28T19:56:00.593Z,4.97
2023-02-28T19:58:27.474Z,8.52
2023-02-28T20:00:54.427Z,5.22
2023-02-28T20:03:21.044Z,5.93
2023-02-28T20:05:47.800Z,6.38
2023-02-28T20:08:15.042Z,11.60
2023-02-28T20:10:41.804Z,8.48
2023-02-28T20:13:08.724Z,10.18
2023-02-28T20:15:36.444Z,9.05
2023-02-28T20:18:03.232Z,7.90
2023-02-28T20:20:29.748Z,6.43
2023-02-28T20:22:56.434Z,6.82
2023-02-28T20:25:22.998Z,6.82
2023-02-28T20:27:49.605Z,7.18
2023-02-28T20:30:16.521Z,6.25
2023-02-28T20:32:43.021Z,5.50
2023-02-28T20:35:11.738Z,6.88
2023-02-28T20:37:39.033Z,6.75
2023-02-28T20:40:06.349Z,5.85
2023-02-28T20:42:32.969Z,7.63
2023-02-28T20:44:59.592Z,9.48
2023-02-28T20:47:26.176Z,9.88
2023-02-28T20:49:52.746Z,7.90
2023-02-28T20:52:19.308Z,6.10
2023-02-28T20:54:46.079Z,7.03
2023-02-28T20:57:12.834Z,5.28
2023-02-28T20:59:42.171Z,6.93
2023-02-28T21:02:09.946Z,5.38
2023-02-28T21:04:36.632Z,7.03
2023-02-28T21:07:03.226Z,9.27
2023-02-28T21:09:29.826Z,7.03
2023-02-28T21:11:56.562Z,7.32
2023-02-28T21:14:24.167Z,5.90
2023-02-28T21:16:50.774Z,7.10
2023-02-28T21:19:18.553Z,11.82
2023-02-28T21:21:45.603Z,8.80
2023-02-28T21:24:13.440Z,6.70
2023-02-28T21:26:40.690Z,8.07
2023-02-28T21:29:07.850Z,8.00
2023-02-28T21:31:35.364Z,7.70
2023-02-28T21:34:03.489Z,6.88
2023-02-28T21:36:33.132Z,7.60
2023-02-28T21:39:05.034Z,7.68
2023-02-28T21:41:31.659Z,6.95
2023-02-28T21:43:58.256Z,8.32
2023-02-28T21:46:26.506Z,8.13
2023-02-28T21:48:53.393Z,7.18
2023-02-28T21:51:21.493Z,9.07
2023-02-28T21:53:48.851Z,7.35
2023-02-28T21:56:19.878Z,11.10
2023-02-28T21:58:47.169Z,8.65
2023-02-28T22:01:21.489Z,7.05
2023-02-28T22:03:49.391Z,8.48
2023-02-28T22:06:20.435Z,8.38
2023-02-28T22:08:48.621Z,10.65
2023-02-28T22:11:15.661Z,9.25
2023-02-28T22:13:42.379Z,9.02
2023-02-28T22:16:11.849Z,11.57
2023-02-28T22:18:39.404Z,9.50
2023-02-28T22:21:05.938Z,11.07
2023-02-28T22:23:32.853Z,8.07
2023-02-28T22:26:03.860Z,10.60
2023-02-28T22:28:31.912Z,9.40
2023-02-28T22:30:58.860Z,10.32
2023-02-28T22:33:26.252Z,10.27
2023-02-28T22:35:53.012Z,8.27
2023-02-28T22:38:20.298Z,10.50
2023-02-28T22:40:46.741Z,8.52
2023-02-28T22:43:15.549Z,9.90
2023-02-28T22:45:42.207Z,7.38
2023-02-28T22:48:11.229Z,8.40
2023-02-28T22:50:37.814Z,10.50
2023-02-28T22:53:04.350Z,9.00
2023-02-28T22:55:30.847Z,10.93
2023-02-28T22:57:57.478Z,9.45
2023-02-28T23:00:24.421Z,8.63
2023-02-28T23:02:51.083Z,9.25
2023-02-28T23:05:17.624Z,8.23
2023-02-28T23:07:44.388Z,8.77
2023-02-28T23:10:14.908Z,10.27
2023-02-28T23:12:50.599Z,9.13
2023-02-28T23:15:18.440Z,6.88
2023-02-28T23:17:46.268Z,8.85
2023-02-28T23:20:14.070Z,8.10
2023-02-28T23:22:40.617Z,8.48
2023-02-28T23:25:07.361Z,11.82
2023-02-28T23:27:33.996Z,8.27
2023-02-28T23:30:00.641Z,10.60
2023-02-28T23:32:27.318Z,8.15
2023-02-28T23:34:55.318Z,9.20
2023-02-28T23:37:21.912Z,9.20
2023-02-28T23:39:48.557Z,7.97
2023-02-28T23:42:15.027Z,8.20
2023-02-28T23:44:41.729Z,8.48
2023-02-28T23:47:08.199Z,9.50
2023-02-28T23:49:34.863Z,11.00
2023-02-28T23:52:04.131Z,8.48
2023-02-28T23:54:30.840Z,10.68
2023-02-28T23:56:57.575Z,11.20
2023-02-28T23:59:24.601Z,10.13
